Time;durP1;ratioP1;P1;durP2;ratioP2;P2;SDS_P1;SDS_P2;PMS_P1;PMS_P2;Temp;Humidity;BMP_temperature;BMP_pressure;BME280_temperature;BME280_humidity;BME280_pressure;Samples;Min_cycle;Max_cycle;Signal;HPM_P1;HPM_P2
2023/11/18 00:00:23;;;;;;;16.23;10.40;;;;;;;7.69;72.19;99650.00;5072697;28;20065;-49
2023/11/18 00:02:50;;;;;;;11.18;8.88;;;;;;;7.44;71.98;99655.09;5072698;28;20398;-48
2023/11/18 00:05:16;;;;;;;15.23;7.60;;;;;;;7.21;72.33;99652.22;5071269;28;20583;-48
2023/11/18 00:07:42;;;;;;;35.20;31.70;;;;;;;6.98;72.03;99647.50;5072553;28;20048;-48
2023/11/18 00:10:08;;;;;;;18.48;10.88;;;;;;;6.95;73.66;99660.03;5071083;28;20028;-49
2023/11/18 00:12:35;;;;;;;12.50;9.18;;;;;;;7.27;74.55;99654.19;5082940;28;20219;-48
2023/11/18 00:15:03;;;;;;;15.73;7.85;;;;;;;7.51;73.61;99643.06;5092705;28;20054;-48
2023/11/18 00:17:32;;;;;;;35.63;31.75;;;;;;;7.79;73.60;99637.63;5074792;28;20032;-49
2023/11/18 00:19:58;;;;;;;16.08;9.35;;;;;;;7.93;72.35;99633.56;5092687;28;20024;-49
2023/11/18 00:22:23;;;;;;;12.45;8.65;;;;;;;7.98;72.39;99633.91;5092832;28;20028;-48
2023/11/18 00:24:49;;;;;;;23.55;21.23;;;;;;;7.93;71.59;99629.16;5092620;28;20091;-49
2023/11/18 00:27:15;;;;;;;14.68;11.23;;;;;;;7.92;71.43;99629.31;5091078;28;20028;-48
2023/11/18 00:29:43;;;;;;;14.02;10.27;;;;;;;7.91;71.27;99625.09;5092402;28;20023;-48
2023/11/18 00:32:09;;;;;;;17.58;12.82;;;;;;;7.76;71.19;99633.50;5092650;28;20042;-49
2023/11/18 00:34:35;;;;;;;11.93;10.18;;;;;;;7.59;70.68;99627.41;5092385;28;20589;-48
2023/11/18 00:37:01;;;;;;;16.77;13.82;;;;;;;7.35;71.38;99640.38;5091004;28;20020;-48
2023/11/18 00:39:27;;;;;;;20.50;13.52;;;;;;;7.36;72.08;99655.06;5091038;28;20024;-49
2023/11/18 00:41:53;;;;;;;17.52;9.60;;;;;;;7.58;72.79;99649.28;5092250;28;20505;-49
2023/11/18 00:44:19;;;;;;;10.43;8.38;;;;;;;7.68;72.17;99651.78;5092211;28;20055;-48
2023/11/18 00:46:44;;;;;;;9.48;7.72;;;;;;;7.64;71.28;99650.44;5090892;28;20456;-49
2023/11/18 00:49:11;;;;;;;29.08;26.13;;;;;;;7.22;71.27;99643.41;5092076;28;20052;-49
2023/11/18 00:51:37;;;;;;;19.83;15.48;;;;;;;7.17;72.61;99643.88;5092029;28;20040;-49
2023/11/18 00:54:07;;;;;;;11.70;8.68;;;;;;;7.18;71.48;99644.69;5092030;28;20078;-48
2023/11/18 00:56:33;;;;;;;13.25;9.75;;;;;;;6.82;71.75;99644.78;5090755;28;20024;-49
2023/11/18 00:59:01;;;;;;;19.42;12.05;;;;;;;7.04;73.27;99640.84;5090748;28;20021;-48
2023/11/18 01:01:27;;;;;;;12.13;9.02;;;;;;;7.25;72.04;99643.09;5091989;28;20493;-49
2023/11/18 01:03:53;;;;;;;17.02;11.10;;;;;;;6.91;70.97;99649.09;5091900;28;20497;-49
2023/11/18 01:06:19;;;;;;;13.55;8.02;;;;;;;6.55;72.52;99641.31;5091776;28;20051;-49
2023/11/18 01:08:46;;;;;;;16.15;11.27;;;;;;;6.21;72.55;99646.38;5090835;28;20060;-49
2023/11/18 01:11:19;;;;;;;14.02;9.63;;;;;;;5.85;73.88;99642.91;5092050;28;20035;-48
2023/11/18 01:13:46;;;;;;;14.85;13.35;;;;;;;5.70;76.19;99637.38;5090607;28;20044;-49
2023/11/18 01:16:13;;;;;;;12.63;8.40;;;;;;;5.93;76.56;99635.16;5091821;28;20080;-48
2023/11/18 01:18:39;;;;;;;32.17;28.55;;;;;;;6.06;76.34;99640.88;5090539;28;20037;-49
2023/11/18 01:21:05;;;;;;;12.88;8.38;;;;;;;6.28;76.34;99630.97;5091798;28;20034;-49
2023/11/18 01:23:31;;;;;;;14.00;8.18;;;;;;;6.48;76.32;99637.69;5091809;28;20055;-48
2023/11/18 01:25:57;;;;;;;11.15;7.88;;;;;;;6.66;75.80;99632.44;5091732;28;20055;-49
2023/11/18 01:28:26;;;;;;;13.93;9.68;;;;;;;6.71;74.50;99629.38;5091636;28;20028;-49
2023/11/18 01:30:52;;;;;;;10.18;7.40;;;;;;;6.70;73.62;99638.16;5091579;28;20020;-48
2023/11/18 01:33:18;;;;;;;11.20;6.72;;;;;;;6.45;72.87;99637.97;5091616;28;20028;-48
2023/11/18 01:35:44;;;;;;;17.27;7.97;;;;;;;6.26;74.30;99643.34;5091571;28;20024;-48
2023/11/18 01:38:11;;;;;;;13.65;8.73;;;;;;;6.28;73.92;99642.22;5091617;28;20026;-48
2023/11/18 01:40:38;;;;;;;14.48;9.55;;;;;;;6.11;75.12;99643.03;5091586;28;20123;-48
2023/11/18 01:43:11;;;;;;;13.75;9.90;;;;;;;6.04;75.61;99647.19;5091473;28;20016;-48
2023/11/18 01:45:37;;;;;;;16.77;13.98;;;;;;;5.90;75.23;99664.94;5091611;28;20479;-48
2023/11/18 01:48:03;;;;;;;13.85;10.32;;;;;;;5.68;75.20;99670.53;5090278;28;20031;-49
2023/11/18 01:50:29;;;;;;;150.63;136.07;;;;;;;5.48;76.33;99675.00;5091429;28;20132;-49
2023/11/18 01:52:55;;;;;;;30.17;24.63;;;;;;;5.42;77.65;99680.78;5091434;28;20028;-48
2023/11/18 01:55:21;;;;;;;23.80;16.60;;;;;;;5.77;78.03;99682.69;5091466;28;20024;-48
2023/11/18 01:57:47;;;;;;;17.80;14.35;;;;;;;6.22;78.56;99675.88;5091475;28;20459;-48
2023/11/18 02:00:13;;;;;;;20.95;18.80;;;;;;;6.89;77.23;99674.50;5090094;28;20044;-48
2023/11/18 02:02:39;;;;;;;11.82;8.75;;;;;;;7.09;76.36;99677.75;5090031;28;20027;-48
2023/11/18 02:05:07;;;;;;;50.67;45.25;;;;;;;7.49;75.99;99662.47;5091317;28;20050;-48
2023/11/18 02:07:36;;;;;;;49.85;44.65;;;;;;;7.05;73.57;99649.50;5091633;28;20050;-48
2023/11/18 02:10:03;;;;;;;142.73;128.70;;;;;;;6.44;74.27;99638.97;5091303;28;20055;-48
2023/11/18 02:12:58;;;;;;;93.55;84.50;;;;;;;5.93;75.89;99638.59;5089764;28;20055;-48
2023/11/18 02:15:26;;;;;;;48.13;38.83;;;;;;;5.73;77.11;99637.06;5091331;28;20414;-48
2023/11/18 02:17:54;;;;;;;235.77;209.20;;;;;;;5.54;77.91;99632.78;5091788;28;20028;-48
2023/11/18 02:20:21;;;;;;;286.23;257.60;;;;;;;5.56;78.92;99634.28;5095134;28;20390;-48
2023/11/18 02:22:47;;;;;;;178.77;160.23;;;;;;;5.90;79.61;99643.28;5093611;28;20023;-48
2023/11/18 02:25:18;;;;;;;98.45;87.85;;;;;;;5.93;78.08;99641.19;5094837;28;20465;-48
2023/11/18 02:27:45;;;;;;;52.42;46.70;;;;;;;5.68;76.92;99647.09;5094809;28;20440;-49
2023/11/18 02:30:16;;;;;;;84.43;75.28;;;;;;;5.33;77.38;99646.00;5094872;28;20066;-48
2023/11/18 02:32:42;;;;;;;37.53;33.53;;;;;;;5.09;79.09;99656.91;5095007;28;20111;-48
2023/11/18 02:35:20;;;;;;;127.70;107.75;;;;;;;4.86;80.25;99659.00;5093312;28;20465;-48
2023/11/18 02:37:49;;;;;;;134.40;121.53;;;;;;;4.86;81.54;99665.03;5093365;28;20710;-48
2023/11/18 02:40:24;;;;;;;34.92;30.20;;;;;;;5.31;82.03;99633.16;5094497;28;20032;-48
2023/11/18 02:42:55;;;;;;;15.60;12.25;;;;;;;5.54;81.01;99632.78;5093307;28;20041;-48
2023/11/18 02:45:21;;;;;;;24.52;19.55;;;;;;;5.62;81.40;99626.84;5094532;28;20055;-48
2023/11/18 02:47:48;;;;;;;12.13;8.73;;;;;;;5.93;82.29;99622.94;5094332;28;20024;-48
2023/11/18 02:50:15;;;;;;;11.35;8.57;;;;;;;6.22;81.95;99631.56;5094245;28;20028;-49
2023/11/18 02:52:42;;;;;;;9.57;7.05;;;;;;;6.04;80.39;99621.97;5093028;28;20114;-48
2023/11/18 02:55:08;;;;;;;10.25;7.40;;;;;;;5.63;79.24;99624.09;5094259;28;20366;-48
2023/11/18 02:57:38;;;;;;;56.20;51.03;;;;;;;5.17;79.57;99608.41;5094134;28;20048;-48
2023/11/18 03:00:08;;;;;;;103.72;92.72;;;;;;;4.89;81.14;99614.50;5094359;28;20562;-49
2023/11/18 03:02:33;;;;;;;157.32;141.93;;;;;;;5.12;82.72;99605.41;5094079;28;20035;-48
2023/11/18 03:04:59;;;;;;;21.65;18.85;;;;;;;5.66;82.63;99600.38;5092758;28;20016;-48
2023/11/18 03:07:26;;;;;;;13.98;11.80;;;;;;;5.96;81.68;99599.25;5092705;28;20397;-48
2023/11/18 03:09:59;;;;;;;11.68;9.90;;;;;;;6.10;80.48;99592.72;5093841;28;20027;-48
2023/11/18 03:12:28;;;;;;;8.95;7.15;;;;;;;5.90;78.76;99594.59;5093627;28;20072;-49
2023/11/18 03:14:54;;;;;;;12.80;9.52;;;;;;;5.46;78.47;99591.84;5093951;28;20024;-48
2023/11/18 03:17:20;;;;;;;17.35;13.48;;;;;;;5.51;80.50;99597.41;5093759;28;20047;-48
2023/11/18 03:19:46;;;;;;;13.43;9.98;;;;;;;6.10;81.76;99589.28;5093984;28;20032;-48
2023/11/18 03:22:14;;;;;;;10.70;7.00;;;;;;;6.47;79.58;99590.91;5093758;28;20047;-48
2023/11/18 03:24:40;;;;;;;27.55;24.58;;;;;;;6.28;78.12;99587.50;5093759;28;20030;-48
2023/11/18 03:27:08;;;;;;;10.38;6.07;;;;;;;6.36;78.46;99577.13;5093603;28;20024;-48
2023/11/18 03:29:35;;;;;;;12.85;7.60;;;;;;;6.07;77.05;99579.97;5093532;28;20027;-48
2023/11/18 03:32:01;;;;;;;8.65;5.45;;;;;;;6.04;78.95;99569.00;5093567;28;20024;-49
2023/11/18 03:34:27;;;;;;;16.75;14.90;;;;;;;6.31;77.90;99565.50;5093516;28;20086;-48
2023/11/18 03:36:53;;;;;;;12.55;8.27;;;;;;;6.76;77.88;99567.97;5093423;28;20425;-48
2023/11/18 03:39:19;;;;;;;6.28;4.50;;;;;;;7.27;76.84;99575.88;5092191;28;20067;-49
2023/11/18 03:41:45;;;;;;;7.53;4.57;;;;;;;7.73;75.53;99573.75;5093656;28;20028;-48
2023/11/18 03:44:12;;;;;;;9.85;6.20;;;;;;;7.88;73.15;99570.50;5093369;28;20482;-49
2023/11/18 03:46:38;;;;;;;18.60;16.75;;;;;;;7.29;71.94;99584.38;5092253;28;20039;-48
2023/11/18 03:49:03;;;;;;;13.38;11.18;;;;;;;6.59;72.63;99587.88;5091937;28;20020;-49
2023/11/18 03:51:29;;;;;;;11.27;8.10;;;;;;;6.12;73.56;99587.34;5093077;28;20028;-49
2023/11/18 03:53:55;;;;;;;15.18;12.40;;;;;;;6.09;75.47;99592.84;5093210;28;20077;-49
2023/11/18 03:56:21;;;;;;;11.85;7.45;;;;;;;6.27;75.72;99603.28;5092980;28;20390;-48
2023/11/18 03:58:49;;;;;;;16.83;13.18;;;;;;;6.05;75.00;99594.94;5093049;28;20439;-48
2023/11/18 04:01:28;;;;;;;17.27;13.55;;;;;;;6.29;76.70;99590.91;5091662;28;20115;-48
2023/11/18 04:03:54;;;;;;;11.77;7.28;;;;;;;6.66;76.40;99585.50;5092925;28;20078;-48
2023/11/18 04:06:24;;;;;;;9.73;6.88;;;;;;;7.03;76.20;99594.03;5091593;28;20078;-49
2023/11/18 04:08:50;;;;;;;11.15;7.22;;;;;;;7.59;75.87;99590.84;5092897;28;20021;-48
2023/11/18 04:11:17;;;;;;;16.52;8.05;;;;;;;8.07;74.42;99582.44;5092698;28;20016;-49
2023/11/18 04:13:44;;;;;;;9.00;7.13;;;;;;;8.35;72.98;99577.72;5092592;28;20170;-49
2023/11/18 04:16:15;;;;;;;9.77;8.48;;;;;;;8.31;71.20;99579.03;5092693;28;20016;-48
2023/11/18 04:18:42;;;;;;;10.85;6.25;;;;;;;8.22;70.85;99595.72;5091420;28;20036;-49
2023/11/18 04:21:12;;;;;;;20.30;13.75;;;;;;;8.24;70.16;99594.56;5092627;28;20097;-48
2023/11/18 04:23:42;;;;;;;20.83;18.75;;;;;;;8.20;69.50;99591.44;5092656;28;20031;-49
2023/11/18 04:26:08;;;;;;;13.55;9.73;;;;;;;8.26;69.82;99597.03;5092517;28;20532;-49
2023/11/18 04:28:35;;;;;;;8.75;7.65;;;;;;;8.23;68.75;99590.31;5092535;28;20636;-49
2023/11/18 04:31:02;;;;;;;16.23;13.75;;;;;;;7.91;68.41;99594.53;5092368;28;20055;-48
2023/11/18 04:33:29;;;;;;;15.80;8.80;;;;;;;7.71;68.93;99599.22;5092479;28;20481;-49
2023/11/18 04:35:58;;;;;;;12.10;7.00;;;;;;;7.73;69.37;99601.69;5092360;28;20020;-48
2023/11/18 04:38:25;;;;;;;29.83;26.42;;;;;;;7.63;68.82;99596.59;5091024;28;20119;-49
2023/11/18 04:40:53;;;;;;;19.08;17.08;;;;;;;7.46;68.88;99592.28;5090727;28;20028;-48
2023/11/18 04:43:20;;;;;;;10.02;7.75;;;;;;;7.35;69.61;99591.56;5092244;28;20073;-49
2023/11/18 04:45:46;;;;;;;11.60;6.70;;;;;;;7.36;69.60;99592.38;5090891;28;20081;-48
2023/11/18 04:48:14;;;;;;;15.88;14.27;;;;;;;7.71;70.24;99587.94;5092193;28;20091;-48
2023/11/18 04:50:43;;;;;;;12.30;8.18;;;;;;;8.03;69.73;99595.03;5092096;28;20398;-49
2023/11/18 04:53:10;;;;;;;9.35;6.88;;;;;;;8.53;68.99;99593.28;5090823;28;20028;-49
2023/11/18 04:55:37;;;;;;;8.00;6.40;;;;;;;8.90;67.31;99597.19;5092063;28;20120;-48
2023/11/18 04:58:04;;;;;;;8.32;6.40;;;;;;;8.55;65.98;99602.63;5092074;28;20050;-48
2023/11/18 05:00:30;;;;;;;11.23;7.93;;;;;;;8.15;66.55;99596.34;5092010;28;20123;-49
2023/11/18 05:02:57;;;;;;;13.95;11.07;;;;;;;8.14;67.22;99604.34;5092253;28;20099;-49
2023/11/18 05:05:23;;;;;;;18.60;16.65;;;;;;;8.40;67.80;99602.41;5092009;28;20028;-49
2023/11/18 05:07:49;;;;;;;10.45;7.43;;;;;;;8.70;66.96;99605.38;5091913;28;20024;-48
2023/11/18 05:10:14;;;;;;;563.75;507.30;;;;;;;8.96;66.41;99593.88;5090511;28;20028;-49
2023/11/18 05:12:40;;;;;;;52.92;40.47;;;;;;;9.27;65.46;99591.31;5091611;28;20043;-48
2023/11/18 05:15:09;;;;;;;15.73;10.13;;;;;;;9.43;64.39;99593.06;5090464;28;20379;-48
2023/11/18 05:17:38;;;;;;;17.60;15.52;;;;;;;9.35;64.10;99595.72;5090517;28;20111;-49
2023/11/18 05:20:08;;;;;;;8.63;7.03;;;;;;;9.07;63.55;99606.59;5090461;28;20042;-49
2023/11/18 05:22:36;;;;;;;23.80;21.55;;;;;;;8.67;64.32;99605.72;5091759;28;20145;-48
2023/11/18 05:25:04;;;;;;;30.17;27.38;;;;;;;8.57;64.98;99611.13;5091988;28;20460;-48
2023/11/18 05:27:31;;;;;;;10.68;8.48;;;;;;;8.40;64.63;99605.03;5091658;28;20020;-48
2023/11/18 05:29:59;;;;;;;75.22;67.93;;;;;;;8.14;64.84;99597.31;5090311;28;20040;-49
2023/11/18 05:32:28;;;;;;;132.27;120.50;;;;;;;7.90;65.91;99595.50;5091623;28;20056;-48
2023/11/18 05:34:55;;;;;;;82.93;75.57;;;;;;;8.09;66.27;99599.63;5090344;28;20024;-48
2023/11/18 05:37:22;;;;;;;24.17;21.77;;;;;;;8.35;66.36;99596.88;5091662;28;20031;-49
2023/11/18 05:39:53;;;;;;;46.33;41.83;;;;;;;8.40;65.51;99591.13;5091644;28;20024;-48
2023/11/18 05:42:19;;;;;;;24.83;21.95;;;;;;;8.10;64.09;99577.72;5091623;28;20103;-48
2023/11/18 05:44:45;;;;;;;33.63;30.23;;;;;;;7.51;64.90;99576.97;5091615;28;20457;-48
2023/11/18 05:47:13;;;;;;;15.68;12.50;;;;;;;6.99;65.41;99565.63;5090190;28;20085;-49
2023/11/18 05:49:39;;;;;;;50.92;46.03;;;;;;;6.82;67.45;99555.25;5090105;28;20046;-48
2023/11/18 05:52:06;;;;;;;27.27;24.45;;;;;;;7.24;69.27;99564.94;5090901;28;20023;-48
2023/11/18 05:54:32;;;;;;;13.27;12.02;;;;;;;7.79;68.77;99554.81;5094270;28;20031;-48
2023/11/18 05:56:59;;;;;;;9.60;8.50;;;;;;;7.62;66.70;99554.94;5094155;28;20024;-48
2023/11/18 05:59:26;;;;;;;37.13;33.47;;;;;;;6.85;66.88;99555.78;5095377;28;20027;-49
2023/11/18 06:01:52;;;;;;;13.73;10.95;;;;;;;6.51;69.50;99553.13;5095372;28;20020;-49
2023/11/18 06:04:18;;;;;;;19.40;17.38;;;;;;;6.92;70.99;99554.19;5095264;28;20085;-48
2023/11/18 06:06:44;;;;;;;9.82;7.78;;;;;;;7.58;70.50;99557.03;5095458;28;20063;-48
2023/11/18 06:09:17;;;;;;;34.60;31.17;;;;;;;7.82;68.44;99547.63;5095161;28;20240;-49
2023/11/18 06:11:45;;;;;;;8.25;7.10;;;;;;;7.36;67.72;99548.84;5093488;28;20126;-49
2023/11/18 06:14:12;;;;;;;10.38;8.70;;;;;;;6.83;68.82;99554.28;5095074;28;20516;-49
2023/11/18 06:16:39;;;;;;;34.08;30.95;;;;;;;7.19;71.32;99568.00;5095055;28;20020;-48
2023/11/18 06:19:06;;;;;;;25.23;22.77;;;;;;;7.88;70.61;99562.66;5095013;28;20028;-48
2023/11/18 06:21:32;;;;;;;66.80;60.38;;;;;;;8.39;68.83;99565.94;5094935;28;20024;-49
2023/11/18 06:24:03;;;;;;;28.50;23.10;;;;;;;8.42;67.40;99568.28;5093580;28;20035;-48
2023/11/18 06:26:29;;;;;;;105.68;95.72;;;;;;;8.57;67.73;99553.56;5093632;28;20497;-48
2023/11/18 06:28:56;;;;;;;34.35;31.02;;;;;;;8.68;66.96;99567.28;5093518;28;20031;-49
2023/11/18 06:31:23;;;;;;;57.42;52.22;;;;;;;8.91;66.35;99573.44;5093421;28;20020;-48
2023/11/18 06:33:50;;;;;;;15.70;9.93;;;;;;;9.11;65.48;99581.72;5094739;28;20054;-49
2023/11/18 06:36:19;;;;;;;14.02;11.82;;;;;;;9.24;65.26;99578.59;5093304;28;20020;-49
2023/11/18 06:38:45;;;;;;;36.08;32.40;;;;;;;9.32;64.63;99569.88;5094525;28;20064;-49
2023/11/18 06:41:13;;;;;;;64.35;58.00;;;;;;;9.24;63.88;99583.00;5094596;28;20069;-48
2023/11/18 06:46:24;;;;;;;41.20;37.58;;;;;;;9.18;63.09;99582.69;5094497;28;20099;-49
2023/11/18 06:48:54;;;;;;;67.03;60.60;;;;;;;8.93;63.03;99566.25;5093106;28;20031;-49
2023/11/18 06:51:24;;;;;;;45.10;40.55;;;;;;;8.90;63.62;99566.56;5094198;28;20016;-49
2023/11/18 06:53:51;;;;;;;26.20;23.73;;;;;;;9.09;63.32;99565.34;5094582;28;20402;-49
2023/11/18 06:56:17;;;;;;;32.00;28.55;;;;;;;8.94;62.20;99570.47;5094161;28;20024;-49
2023/11/18 06:58:43;;;;;;;38.60;35.22;;;;;;;8.49;62.12;99578.88;5094177;28;20066;-49
2023/11/18 07:01:13;;;;;;;18.90;17.20;;;;;;;8.12;63.01;99580.97;5094167;28;20024;-48
2023/11/18 07:03:41;;;;;;;26.08;23.58;;;;;;;8.13;65.20;99577.41;5093770;28;20024;-49
2023/11/18 07:06:07;;;;;;;38.83;35.15;;;;;;;8.33;65.13;99575.28;5093972;28;20016;-48
2023/11/18 07:08:34;;;;;;;29.17;26.08;;;;;;;8.50;64.45;99578.72;5094078;28;20035;-48
2023/11/18 07:11:01;;;;;;;31.13;28.10;;;;;;;8.86;64.87;99570.50;5093935;28;20028;-48
2023/11/18 07:13:28;;;;;;;24.00;19.75;;;;;;;9.29;63.90;99565.78;5092398;28;20044;-49
2023/11/18 07:15:57;;;;;;;16.55;10.15;;;;;;;9.47;63.00;99568.16;5092527;28;20028;-49
2023/11/18 07:18:24;;;;;;;21.67;17.75;;;;;;;9.49;62.35;99578.47;5093869;28;20020;-49
2023/11/18 07:20:52;;;;;;;18.73;11.88;;;;;;;9.29;61.96;99580.69;5094093;28;20097;-48
2023/11/18 07:23:19;;;;;;;12.30;7.93;;;;;;;9.25;62.02;99582.81;5093800;28;20016;-49
2023/11/18 07:25:45;;;;;;;9.80;8.90;;;;;;;9.29;62.30;99584.13;5092385;28;20089;-49
2023/11/18 07:28:14;;;;;;;16.27;14.68;;;;;;;9.51;62.01;99577.31;5093646;28;20016;-49
2023/11/18 07:30:42;;;;;;;14.32;12.55;;;;;;;9.48;61.87;99587.34;5093494;28;20028;-49
2023/11/18 07:33:08;;;;;;;15.65;13.43;;;;;;;9.52;61.71;99586.00;5092230;28;20503;-48
2023/11/18 07:35:36;;;;;;;10.20;9.20;;;;;;;9.56;61.42;99574.19;5093484;28;20035;-48
2023/11/18 07:38:02;;;;;;;10.38;9.27;;;;;;;9.68;61.37;99570.19;5093758;28;20031;-48
2023/11/18 07:40:28;;;;;;;28.23;25.65;;;;;;;10.31;61.16;99589.28;5093373;28;20490;-49
2023/11/18 07:43:01;;;;;;;16.67;14.98;;;;;;;11.72;59.19;99600.75;5092077;28;20020;-49
2023/11/18 07:45:28;;;;;;;12.25;10.95;;;;;;;12.19;56.17;99610.00;5093361;28;20034;-49
2023/11/18 07:47:57;;;;;;;20.30;15.13;;;;;;;11.60;55.81;99610.13;5091990;28;20016;-48
2023/11/18 07:50:23;;;;;;;30.98;27.42;;;;;;;10.94;60.32;99610.88;5093149;28;20030;-48
2023/11/18 07:52:50;;;;;;;35.33;31.77;;;;;;;10.39;62.03;99617.28;5091868;28;20020;-49
2023/11/18 07:55:16;;;;;;;12.35;9.43;;;;;;;10.08;62.03;99605.03;5091810;28;20024;-49
2023/11/18 07:57:42;;;;;;;27.05;24.67;;;;;;;9.92;62.39;99600.69;5093101;28;20030;-49
2023/11/18 08:00:09;;;;;;;28.10;25.23;;;;;;;10.08;62.70;99606.81;5093045;28;20033;-48
2023/11/18 08:02:39;;;;;;;19.38;17.48;;;;;;;10.22;61.69;99592.13;5092932;28;20028;-49
2023/11/18 08:05:08;;;;;;;20.25;17.85;;;;;;;10.40;61.53;99592.66;5092903;28;20517;-48
2023/11/18 08:07:35;;;;;;;48.05;42.42;;;;;;;11.11;61.55;99589.72;5092857;28;20078;-48
2023/11/18 08:10:05;;;;;;;26.83;24.00;;;;;;;12.33;59.08;99579.34;5091422;28;20065;-48
2023/11/18 08:12:32;;;;;;;38.22;34.90;;;;;;;13.16;56.35;99573.44;5091295;28;20045;-49
2023/11/18 08:14:59;;;;;;;16.50;11.38;;;;;;;13.44;54.64;99572.56;5091976;28;20070;-49
2023/11/18 08:17:25;;;;;;;12.73;8.63;;;;;;;13.46;53.81;99568.75;5091501;28;20028;-49
2023/11/18 08:19:52;;;;;;;24.85;18.73;;;;;;;13.49;53.44;99570.97;5092962;28;20028;-49
2023/11/18 08:22:18;;;;;;;9.55;7.13;;;;;;;13.36;52.86;99573.53;5092632;28;20034;-49
2023/11/18 08:24:48;;;;;;;8.43;6.50;;;;;;;13.36;53.35;99589.34;5092614;28;20027;-48
2023/11/18 08:27:14;;;;;;;12.43;5.80;;;;;;;14.72;51.87;99589.22;5092806;28;20066;-49
2023/11/18 08:29:40;;;;;;;16.10;12.90;;;;;;;16.33;48.79;99584.09;5092453;28;20643;-49
2023/11/18 08:32:09;;;;;;;9.80;7.63;;;;;;;17.41;44.63;99590.84;5092425;28;20428;-47
2023/11/18 08:34:37;;;;;;;14.85;9.32;;;;;;;16.89;44.45;99580.56;5092705;28;20051;-47
2023/11/18 08:37:07;;;;;;;6.43;4.70;;;;;;;16.05;44.84;99582.66;5092354;28;20026;-47
2023/11/18 08:39:32;;;;;;;7.95;6.57;;;;;;;15.18;46.02;99593.63;5092415;28;20019;-47
2023/11/18 08:41:58;;;;;;;22.50;20.40;;;;;;;15.03;48.03;99590.41;5092249;28;20016;-47
2023/11/18 08:44:24;;;;;;;15.65;13.00;;;;;;;15.35;47.55;99591.34;5092337;28;20024;-47
2023/11/18 08:46:53;;;;;;;13.63;12.18;;;;;;;15.22;47.93;99588.72;5090866;28;20068;-47
2023/11/18 08:49:22;;;;;;;46.47;41.80;;;;;;;15.18;48.21;99593.63;5090881;28;20397;-47
2023/11/18 08:51:58;;;;;;;42.10;38.47;;;;;;;15.28;48.31;99598.47;5090707;28;20383;-47
2023/11/18 08:54:25;;;;;;;14.38;12.15;;;;;;;15.54;47.94;99594.13;5090985;28;20035;-47
2023/11/18 08:56:57;;;;;;;15.68;12.13;;;;;;;15.56;47.26;99579.66;5092093;28;20032;-47
2023/11/18 08:59:27;;;;;;;12.82;10.20;;;;;;;15.30;47.47;99575.28;5092153;28;20085;-47
2023/11/18 09:01:59;;;;;;;11.55;7.88;;;;;;;14.98;48.21;99577.81;5092010;28;20550;-47
2023/11/18 09:04:27;;;;;;;16.55;13.02;;;;;;;14.79;48.95;99573.38;5092034;28;20058;-47
2023/11/18 09:07:00;;;;;;;14.02;9.35;;;;;;;14.72;48.49;99576.00;5091935;28;20031;-47
2023/11/18 09:09:28;;;;;;;17.00;15.43;;;;;;;14.44;49.26;99568.28;5090670;28;20028;-47
2023/11/18 09:11:57;;;;;;;14.40;9.93;;;;;;;14.30;49.89;99564.81;5091475;28;20114;-48
2023/11/18 09:14:27;;;;;;;10.90;8.70;;;;;;;14.10;49.83;99562.16;5090601;28;20020;-47
2023/11/18 09:16:58;;;;;;;10.48;6.78;;;;;;;13.98;50.66;99572.53;5091792;28;20119;-47
2023/11/18 09:19:25;;;;;;;14.13;8.30;;;;;;;14.88;51.18;99573.97;5091893;28;20140;-46
2023/11/18 09:21:51;;;;;;;16.00;8.98;;;;;;;16.87;47.71;99572.03;5091794;28;20487;-47
2023/11/18 09:24:19;;;;;;;32.92;29.40;;;;;;;17.05;45.51;99563.28;5091833;28;20031;-47
2023/11/18 09:26:50;;;;;;;71.75;65.35;;;;;;;16.47;49.59;99559.13;5093575;28;20024;-47
2023/11/18 09:29:18;;;;;;;274.02;250.60;;;;;;;15.61;52.25;99563.13;5095893;28;20023;-47
2023/11/18 09:31:48;;;;;;;111.40;100.72;;;;;;;14.94;54.35;99581.06;5096061;28;20028;-47
2023/11/18 09:34:17;;;;;;;35.40;30.42;;;;;;;14.68;54.34;99581.94;5077684;28;20031;-47
2023/11/18 09:36:48;;;;;;;15.73;11.60;;;;;;;14.57;53.44;99580.72;5094489;28;20024;-47
2023/11/18 09:39:29;;;;;;;19.55;15.93;;;;;;;14.81;53.28;99589.84;5095807;28;20020;-47
2023/11/18 09:41:56;;;;;;;23.10;20.73;;;;;;;15.82;51.26;99577.13;5095639;28;20089;-47
2023/11/18 09:44:25;;;;;;;13.38;10.00;;;;;;;17.04;48.06;99584.72;5077878;28;20081;-47
2023/11/18 09:47:03;;;;;;;11.52;10.32;;;;;;;17.77;46.15;99579.34;5095639;28;20452;-47
2023/11/18 09:49:38;;;;;;;50.60;45.70;;;;;;;18.06;45.90;99570.78;5095664;28;20028;-47
2023/11/18 09:52:06;;;;;;;115.60;105.50;;;;;;;18.66;44.54;99560.00;5095842;28;20110;-47
2023/11/18 09:55:14;;;;;;;68.32;62.45;;;;;;;18.46;43.85;99547.06;5095772;28;20035;-47
2023/11/18 09:57:57;;;;;;;200.00;180.65;;;;;;;17.96;44.33;99568.69;5095718;28;20162;-47
2023/11/18 10:00:32;;;;;;;76.45;69.72;;;;;;;17.69;44.76;99558.41;5094181;28;20052;-47
2023/11/18 10:03:00;;;;;;;10.60;9.60;;;;;;;17.40;44.83;99575.13;5095280;28;20028;-47
2023/11/18 10:05:27;;;;;;;408.42;366.65;;;;;;;16.88;45.51;99586.94;5095283;28;20016;-47
2023/11/18 10:07:53;;;;;;;475.17;427.88;;;;;;;16.39;47.19;99575.28;5095271;28;20020;-47
2023/11/18 10:10:20;;;;;;;289.00;260.10;;;;;;;15.97;47.74;99580.28;5095032;28;20031;-47
2023/11/18 10:12:52;;;;;;;126.85;114.32;;;;;;;15.84;48.35;99586.47;5094802;28;20083;-47
2023/11/18 10:15:23;;;;;;;273.73;245.30;;;;;;;15.73;48.87;99589.78;5095036;28;20016;-47
2023/11/18 10:17:59;;;;;;;901.50;703.10;;;;;;;15.77;50.08;99573.28;5095104;28;20379;-47
2023/11/18 10:20:45;;;;;;;255.27;228.02;;;;;;;16.01;49.89;99570.88;5094939;28;20042;-47
2023/11/18 10:23:12;;;;;;;445.23;401.63;;;;;;;16.17;49.15;99578.28;5095015;28;20229;-47
2023/11/18 10:25:52;;;;;;;48.78;39.28;;;;;;;16.25;48.50;99587.00;5094888;28;20047;-47
2023/11/18 10:28:36;;;;;;;14.80;9.23;;;;;;;15.92;47.96;99591.50;5095087;28;20374;-47
2023/11/18 10:31:07;;;;;;;13.55;8.57;;;;;;;15.37;48.82;99591.09;5094713;28;20028;-47
2023/11/18 10:33:37;;;;;;;19.75;9.05;;;;;;;15.25;49.92;99585.69;5094825;28;20021;-47
2023/11/18 10:36:06;;;;;;;18.83;13.55;;;;;;;15.49;50.26;99585.97;5094933;28;20115;-47
2023/11/18 10:38:39;;;;;;;14.88;8.60;;;;;;;15.69;49.60;99577.97;5093894;28;20024;-47
2023/11/18 10:41:05;;;;;;;16.58;11.75;;;;;;;15.77;49.45;99565.34;5094626;28;20068;-47
2023/11/18 10:43:35;;;;;;;14.57;11.10;;;;;;;15.78;49.38;99561.66;5094534;28;20093;-47
2023/11/18 10:46:11;;;;;;;11.10;8.75;;;;;;;15.66;49.41;99542.16;5094578;28;20028;-47
2023/11/18 10:48:43;;;;;;;8.65;7.07;;;;;;;15.54;49.99;99535.91;5094481;28;20028;-47
2023/11/18 10:51:11;;;;;;;8.75;6.93;;;;;;;15.40;49.68;99535.16;5094358;28;20061;-47
2023/11/18 10:53:38;;;;;;;10.05;6.50;;;;;;;15.30;50.12;99521.56;5094354;28;20052;-47
2023/11/18 10:56:19;;;;;;;9.75;5.68;;;;;;;15.14;49.93;99534.25;5094302;28;20420;-47
2023/11/18 10:58:46;;;;;;;7.97;6.32;;;;;;;14.80;50.19;99542.47;5094199;28;20039;-47
2023/11/18 11:01:12;;;;;;;8.90;5.93;;;;;;;14.48;50.79;99529.88;5094225;28;20397;-47
2023/11/18 11:03:57;;;;;;;8.23;7.00;;;;;;;14.12;51.61;99528.47;5094251;28;20398;-47
2023/11/18 11:06:30;;;;;;;10.82;5.65;;;;;;;13.88;52.88;99521.16;5092971;28;20074;-47
2023/11/18 11:09:00;;;;;;;10.73;7.82;;;;;;;13.90;53.06;99516.47;5094305;28;20401;-47
2023/11/18 11:11:39;;;;;;;10.10;8.93;;;;;;;13.89;54.17;99518.31;5092335;28;20527;-48
2023/11/18 11:14:06;;;;;;;8.60;6.53;;;;;;;14.00;53.33;99524.81;5092715;28;20053;-47
2023/11/18 11:16:44;;;;;;;10.20;5.75;;;;;;;13.89;53.90;99526.22;5092783;28;20420;-47
2023/11/18 11:19:25;;;;;;;6.18;5.57;;;;;;;13.92;54.87;99507.38;5093981;28;20016;-47
2023/11/18 11:22:15;;;;;;;14.18;11.85;;;;;;;14.34;54.54;99521.16;5092636;28;20035;-47
2023/11/18 11:25:09;;;;;;;12.35;10.68;;;;;;;14.86;53.85;99518.66;5093829;28;20024;-47
2023/11/18 11:28:01;;;;;;;7.40;6.28;;;;;;;15.16;52.81;99526.09;5093692;28;20040;-47
2023/11/18 11:30:39;;;;;;;6.70;5.97;;;;;;;15.15;52.29;99546.47;5093649;28;20028;-47
2023/11/18 11:33:27;;;;;;;7.90;6.07;;;;;;;14.71;52.56;99548.00;5092507;28;20036;-47
2023/11/18 11:35:57;;;;;;;7.78;5.50;;;;;;;14.38;53.90;99540.84;5093490;28;20020;-47